Ogden Hinckley Airport
KOGD : now visible

Airfield :











YOU CAN JOIN US ON...

 
LOGIN :

Register | Disclaimer

   EN    FR    IT 

 









Legend :    VFR   Marginal VFR   IFR   Intensive IFR   Very Intensive IFR
Visi :
Ceiling :
>= 8 km
>= 3000ft
5 to 8 km
1000 to 3000 ft
1500m to 5 km
500 to 1000 ft
800 to 1500m
200 to 500 ft
< 800m
< 200 ft
Symbols :   Thunderstorms  Fog  Heavy snow  Heavy precipitations  Wind > 20 kt






- Airport Elevation : 4473 ft


KOGD - Ogden Hinckley

CURRENT METAR :
  • 251553Z 15006KT 1/4SM FG VV002 02/01 A3016 RMK AO2 SLP217 T00220011

EXPIRED METARs :
  • 251524Z 17007KT 1/2SM FG OVC002 02/01 A3016 RMK AO2 T00220011
  • 251508Z 17005KT 1SM BR OVC002 02/01 A3017 RMK AO2 T00220006
  • 251501Z 18004KT 1 1/4SM BR OVC003 02/01 A3016 RMK AO2 T00220011
  • 251441Z 18004KT 2 1/2SM BR OVC004 02/01 A3018 RMK AO2 T00220006
  • 251426Z 17004KT 3SM BR OVC004 02/01 A3019 RMK AO2 T00220006
  • 251353Z 00000KT 5SM BR BKN006 OVC039 02/01 A3019 RMK AO2 RAB06E17UPB15E16 SLP226 P0000 T00220006
  • 251342Z AUTO 18003KT 5SM BR SCT005 BKN039 OVC070 02/00 A3019 RMK AO2 RAB06E17UPB15E16 P0000 T00170000

TAF KOGD
Valid from the 25 at 16:00 until the 26 at 12:00 UTC


251532Z 2516/2612 VRB04KT 1/2SM FG OVC002
FM251700 20005KT 6SM HZ BKN005 BKN040
FM252100 29006KT P6SM SCT040 BKN120
FM260300 15004KT 3SM BCFG SCT020 BKN040



MET'MAP, your aeronautical weather chart ! - Copyright ORBIFLY December 2007 - Disclaimer

ORBIFLY MET'MAP TEAM :

Programming & Development : Alexandra Zaïnal
Concept & original design : Baudouin d'Aumeries
Assistance for programming : Marc-Olivier Méhu
Technical & hardware support : Manuel Goepfert

Contact : metmap@orbifly.com




SOURCES & CREDITS :

   NOAA       Earth
Advisory